Time;durP1;ratioP1;P1;durP2;ratioP2;P2;SDS_P1;SDS_P2;PMS_P1;PMS_P2;Temp;Humidity;BMP_temperature;BMP_pressure;BME280_temperature;BME280_humidity;BME280_pressure;Samples;Min_cycle;Max_cycle;Signal;HPM_P1;HPM_P2
2022/03/20 00:01:02;;;;;;;5.77;1.23;;;25.60;99.90;;;;;;4916964;29;20247;-67
2022/03/20 00:03:31;;;;;;;4.10;1.60;;;25.60;99.90;;;;;;4916948;29;20273;-66
2022/03/20 00:05:59;;;;;;;13.23;1.93;;;25.60;99.90;;;;;;4916798;29;20183;-67
2022/03/20 00:08:27;;;;;;;6.63;1.80;;;26.10;99.90;;;;;;4916799;29;20177;-67
2022/03/20 00:11:01;;;;;;;9.63;1.40;;;26.10;99.90;;;;;;4916930;29;20221;-67
2022/03/20 00:13:30;;;;;;;5.87;1.87;;;25.70;99.90;;;;;;4916606;29;20219;-67
2022/03/20 00:15:59;;;;;;;7.30;1.67;;;26.00;99.90;;;;;;4916883;29;20181;-67
2022/03/20 00:18:27;;;;;;;12.13;1.80;;;26.50;99.90;;;;;;4920752;29;20181;-67
2022/03/20 00:21:00;;;;;;;7.07;1.47;;;27.00;99.90;;;;;;4920713;29;20264;-67
2022/03/20 00:23:28;;;;;;;14.50;2.23;;;27.40;99.90;;;;;;4920635;29;20177;-67
2022/03/20 00:25:58;;;;;;;5.20;1.63;;;27.40;99.90;;;;;;4917501;29;20197;-66
2022/03/20 00:28:26;;;;;;;9.03;1.67;;;26.30;99.90;;;;;;4910419;29;20202;-67
2022/03/20 00:30:55;;;;;;;8.77;1.90;;;26.60;99.90;;;;;;4919394;29;20188;-67
2022/03/20 00:33:25;;;;;;;8.03;1.50;;;26.80;99.90;;;;;;4919458;29;20594;-67
2022/03/20 00:35:53;;;;;;;6.90;1.43;;;26.70;99.90;;;;;;4917949;29;20193;-66
2022/03/20 00:38:20;;;;;;;10.93;2.00;;;27.40;99.90;;;;;;4918084;29;20189;-69
2022/03/20 00:40:48;;;;;;;5.77;1.50;;;27.00;99.90;;;;;;4918528;29;20651;-67
2022/03/20 00:43:16;;;;;;;7.67;1.87;;;27.10;99.90;;;;;;4919147;29;20185;-67
2022/03/20 00:45:44;;;;;;;9.17;1.47;;;26.80;99.90;;;;;;4918464;29;20190;-68
2022/03/20 00:48:11;;;;;;;6.20;1.70;;;27.00;99.90;;;;;;4918972;29;20561;-67
2022/03/20 00:50:40;;;;;;;10.33;1.87;;;27.40;99.90;;;;;;4918321;29;20683;-68
2022/03/20 00:53:07;;;;;;;8.50;1.40;;;28.20;99.90;;;;;;4918687;29;20213;-68
2022/03/20 00:55:35;;;;;;;8.67;2.03;;;28.50;99.90;;;;;;4918699;29;20276;-68
2022/03/20 00:58:03;;;;;;;7.60;1.90;;;28.60;99.90;;;;;;4918723;29;20208;-68
2022/03/20 01:00:32;;;;;;;8.03;1.60;;;28.80;99.90;;;;;;4918865;29;20204;-68
2022/03/20 01:03:00;;;;;;;7.00;1.40;;;28.70;99.90;;;;;;4919021;29;20193;-68
2022/03/20 01:05:28;;;;;;;6.73;2.20;;;28.00;99.90;;;;;;4917771;29;20189;-67
2022/03/20 01:07:59;;;;;;;6.90;1.43;;;28.40;99.90;;;;;;4918936;29;20195;-68
2022/03/20 01:10:30;;;;;;;10.63;2.20;;;28.40;99.90;;;;;;4907427;29;20197;-67
2022/03/20 01:12:57;;;;;;;6.30;1.60;;;27.50;99.90;;;;;;4919270;29;20224;-67
2022/03/20 01:15:25;;;;;;;8.93;1.70;;;27.30;99.90;;;;;;4919268;29;20193;-66
2022/03/20 01:17:53;;;;;;;12.25;1.75;;;27.30;99.90;;;;;;4918903;29;20584;-68
2022/03/20 01:20:21;;;;;;;6.37;1.43;;;28.10;99.90;;;;;;4917492;29;20185;-66
2022/03/20 01:22:49;;;;;;;4.95;1.30;;;28.50;99.90;;;;;;4919595;29;20193;-67
2022/03/20 01:25:18;;;;;;;7.87;1.50;;;28.80;99.90;;;;;;4919632;29;20269;-67
2022/03/20 01:27:46;;;;;;;3.80;1.33;;;29.20;99.90;;;;;;4919258;29;20558;-67
2022/03/20 01:30:13;;;;;;;5.63;1.67;;;29.00;99.90;;;;;;4919243;29;20232;-67
2022/03/20 01:32:41;;;;;;;9.82;1.85;;;28.50;99.90;;;;;;4919349;29;20217;-67
2022/03/20 01:35:09;;;;;;;4.90;1.38;;;28.90;99.90;;;;;;4919448;29;20177;-68
2022/03/20 01:37:37;;;;;;;7.33;2.10;;;28.30;99.90;;;;;;4919390;29;20217;-68
2022/03/20 01:40:06;;;;;;;5.00;1.58;;;29.10;99.90;;;;;;4919403;29;20188;-68
2022/03/20 01:42:38;;;;;;;6.13;1.80;;;28.80;99.90;;;;;;4919532;29;20616;-67
2022/03/20 01:45:14;;;;;;;9.32;1.85;;;28.30;99.90;;;;;;4919539;29;20184;-67
2022/03/20 01:47:43;;;;;;;8.05;1.50;;;28.60;99.90;;;;;;4919054;29;20196;-67
2022/03/20 01:50:10;;;;;;;9.70;1.55;;;29.10;99.90;;;;;;4919008;29;20552;-67
2022/03/20 01:52:38;;;;;;;7.35;1.70;;;29.10;99.90;;;;;;4919020;29;20217;-67
2022/03/20 01:55:08;;;;;;;6.05;1.50;;;28.90;99.90;;;;;;4918557;29;20280;-67
2022/03/20 01:57:37;;;;;;;6.65;1.70;;;28.60;99.90;;;;;;4919369;29;20185;-67
2022/03/20 02:00:06;;;;;;;5.82;1.40;;;29.30;99.90;;;;;;4902086;29;20261;-67
2022/03/20 02:02:38;;;;;;;5.63;1.48;;;28.80;99.90;;;;;;4918493;29;20228;-66
2022/03/20 02:05:10;;;;;;;6.93;1.40;;;28.70;99.90;;;;;;4918594;29;20545;-67
2022/03/20 02:07:40;;;;;;;10.88;1.67;;;29.00;99.90;;;;;;4918351;29;20181;-66
2022/03/20 02:10:09;;;;;;;10.98;1.80;;;29.40;99.90;;;;;;4914970;29;20665;-67
2022/03/20 02:12:38;;;;;;;8.20;1.73;;;29.40;99.90;;;;;;4918123;29;20615;-68
2022/03/20 02:15:09;;;;;;;9.23;1.75;;;29.40;99.90;;;;;;4915902;29;20177;-66
2022/03/20 02:17:38;;;;;;;8.18;1.63;;;29.90;99.90;;;;;;4918574;29;20637;-66
2022/03/20 02:20:08;;;;;;;6.95;1.50;;;30.40;99.90;;;;;;4915891;29;20216;-67
2022/03/20 02:22:40;;;;;;;5.35;1.40;;;30.60;99.90;;;;;;4918116;29;20211;-67
2022/03/20 02:25:10;;;;;;;9.93;1.63;;;29.60;99.90;;;;;;4916950;29;20185;-68
2022/03/20 02:27:41;;;;;;;6.68;1.73;;;29.70;99.90;;;;;;4917384;29;20185;-67
2022/03/20 02:30:15;;;;;;;6.93;1.60;;;29.70;99.90;;;;;;4918719;29;20531;-68
2022/03/20 02:32:49;;;;;;;8.85;1.50;;;30.30;99.90;;;;;;4918366;29;20217;-67
2022/03/20 02:35:19;;;;;;;10.48;1.75;;;30.20;99.90;;;;;;4918499;29;20177;-67
2022/03/20 02:37:48;;;;;;;6.90;1.60;;;29.30;99.90;;;;;;4918480;29;20181;-67
2022/03/20 02:40:20;;;;;;;6.90;1.40;;;29.40;99.90;;;;;;4917485;29;20182;-67
2022/03/20 02:42:54;;;;;;;7.63;1.77;;;29.80;99.90;;;;;;4918307;29;20283;-67
2022/03/20 02:45:29;;;;;;;8.15;1.58;;;29.90;99.90;;;;;;4917300;29;20193;-66
2022/03/20 02:47:59;;;;;;;9.65;2.10;;;29.90;99.90;;;;;;4918335;29;20548;-68
2022/03/20 02:50:35;;;;;;;4.63;1.25;;;29.70;99.90;;;;;;4918222;29;20210;-67
2022/03/20 02:53:13;;;;;;;11.10;1.92;;;30.30;99.90;;;;;;4918218;29;20302;-67
2022/03/20 02:55:44;;;;;;;6.13;1.48;;;30.60;99.90;;;;;;4918221;29;20544;-67
2022/03/20 02:58:14;;;;;;;9.23;2.63;;;30.20;99.90;;;;;;4918243;29;20188;-68
2022/03/20 03:00:44;;;;;;;8.05;1.55;;;30.80;99.90;;;;;;4917841;29;20184;-67
2022/03/20 03:03:13;;;;;;;6.35;1.85;;;31.20;99.90;;;;;;4918070;29;20204;-67
2022/03/20 03:05:42;;;;;;;7.32;1.58;;;30.70;99.90;;;;;;4917972;29;20261;-67
2022/03/20 03:10:59;;;;;;;8.13;1.60;;;29.90;99.90;;;;;;4917805;29;20187;-67
2022/03/20 03:13:38;;;;;;;6.33;1.47;;;29.90;99.90;;;;;;4917555;29;20224;-67
2022/03/20 03:16:10;;;;;;;6.75;1.77;;;30.10;99.90;;;;;;4917887;29;20169;-68
2022/03/20 03:18:41;;;;;;;8.18;1.77;;;29.80;99.90;;;;;;4917809;29;20177;-69
2022/03/20 03:21:13;;;;;;;8.77;1.60;;;30.10;99.90;;;;;;4916566;29;20186;-67
2022/03/20 03:23:41;;;;;;;5.53;1.60;;;30.10;99.90;;;;;;4917535;29;20177;-67
2022/03/20 03:26:10;;;;;;;9.77;1.98;;;30.20;99.90;;;;;;4917649;29;20212;-68
2022/03/20 03:28:38;;;;;;;7.13;1.90;;;30.20;99.90;;;;;;4917536;29;20328;-68
2022/03/20 03:31:07;;;;;;;5.30;1.40;;;30.40;99.90;;;;;;4917639;29;20181;-68
2022/03/20 03:35:41;;;;;;;11.68;2.22;;;30.40;99.90;;;;;;4917282;29;20217;-68
2022/03/20 03:36:25;;;;;;;6.85;2.03;;;30.10;99.90;;;;;;4917407;29;20189;-67
2022/03/20 03:38:53;;;;;;;8.23;2.03;;;30.50;99.90;;;;;;4916130;29;20189;-68
2022/03/20 03:41:21;;;;;;;7.38;1.83;;;30.20;99.90;;;;;;4917492;29;20188;-68
2022/03/20 03:43:49;;;;;;;5.90;1.65;;;30.10;99.90;;;;;;4917725;29;20966;-69
2022/03/20 03:46:17;;;;;;;5.17;1.40;;;30.10;99.90;;;;;;4917090;29;20355;-68
2022/03/20 03:48:45;;;;;;;9.02;1.98;;;29.80;99.90;;;;;;4917479;29;20188;-68
2022/03/20 03:51:12;;;;;;;7.03;2.17;;;29.70;99.90;;;;;;4916882;29;20193;-67
2022/03/20 03:53:40;;;;;;;7.07;1.85;;;29.80;99.90;;;;;;4917003;29;20713;-67
2022/03/20 03:56:08;;;;;;;6.43;1.77;;;29.90;99.90;;;;;;4917310;29;20177;-67
2022/03/20 03:58:35;;;;;;;7.30;2.20;;;29.60;99.90;;;;;;4917111;29;20181;-68
2022/03/20 04:01:03;;;;;;;10.77;1.47;;;29.60;99.90;;;;;;4916824;29;20220;-68
2022/03/20 04:03:31;;;;;;;8.05;1.60;;;30.00;99.90;;;;;;4917004;29;20173;-68
2022/03/20 04:06:04;;;;;;;5.97;1.53;;;29.90;99.90;;;;;;4917087;29;20260;-68
2022/03/20 04:08:34;;;;;;;10.83;2.53;;;30.10;99.90;;;;;;4917214;29;20342;-68
2022/03/20 04:11:02;;;;;;;9.68;2.40;;;30.10;99.90;;;;;;4916957;29;20631;-68
2022/03/20 04:13:30;;;;;;;8.17;1.60;;;29.80;99.90;;;;;;4916714;29;20217;-68
2022/03/20 04:15:58;;;;;;;9.30;2.33;;;29.70;99.90;;;;;;4916920;29;20205;-68
2022/03/20 04:18:25;;;;;;;6.63;1.37;;;29.90;99.90;;;;;;4916897;29;20185;-68
2022/03/20 04:20:53;;;;;;;8.37;1.40;;;29.30;99.90;;;;;;4917258;29;20181;-68
2022/03/20 04:26:07;;;;;;;5.00;1.50;;;29.40;99.90;;;;;;4916817;29;20184;-68
2022/03/20 04:28:35;;;;;;;8.10;2.20;;;29.60;99.90;;;;;;4916872;29;20213;-68
2022/03/20 04:31:03;;;;;;;7.20;1.80;;;29.90;99.90;;;;;;4916837;29;20268;-69
2022/03/20 04:33:31;;;;;;;6.17;2.50;;;30.20;99.90;;;;;;4916769;29;20212;-68
2022/03/20 04:35:59;;;;;;;4.97;1.30;;;29.90;99.90;;;;;;4916875;29;20173;-68
2022/03/20 04:38:28;;;;;;;8.97;2.20;;;29.90;99.90;;;;;;4916749;29;20192;-68
2022/03/20 04:40:56;;;;;;;5.00;1.77;;;30.10;99.90;;;;;;4915477;29;20194;-68
2022/03/20 04:43:23;;;;;;;9.30;1.83;;;30.20;99.90;;;;;;4916797;29;20225;-68
2022/03/20 04:45:51;;;;;;;6.60;1.40;;;30.30;99.90;;;;;;4916685;29;20193;-68
2022/03/20 04:59:22;;;;;;;5.57;1.50;;;30.00;99.90;;;;;;4912604;29;20604;-67
2022/03/20 05:01:50;;;;;;;10.43;2.30;;;29.30;99.90;;;;;;4915074;29;20251;-68
2022/03/20 05:04:18;;;;;;;6.63;1.97;;;29.20;99.90;;;;;;4917002;29;20177;-66
2022/03/20 05:06:45;;;;;;;9.93;2.30;;;29.70;99.90;;;;;;4918719;29;20188;-67
2022/03/20 05:14:46;;;;;;;9.17;2.23;;;28.70;99.90;;;;;;4918873;29;20275;-67
2022/03/20 05:17:14;;;;;;;9.63;2.03;;;28.70;99.90;;;;;;4918603;29;20189;-67
2022/03/20 05:19:42;;;;;;;11.17;2.67;;;29.00;99.90;;;;;;4918675;29;20189;-67
2022/03/20 05:22:11;;;;;;;11.60;2.43;;;28.80;99.90;;;;;;4918539;29;20185;-67
2022/03/20 05:24:40;;;;;;;5.70;1.70;;;28.80;99.90;;;;;;4918669;29;20173;-68
2022/03/20 05:27:08;;;;;;;8.10;2.00;;;28.30;99.90;;;;;;4918656;29;20236;-68
2022/03/20 05:29:38;;;;;;;6.80;1.77;;;28.50;99.90;;;;;;4918511;29;20186;-68
2022/03/20 05:32:06;;;;;;;11.40;2.53;;;28.30;99.90;;;;;;4918262;29;20241;-68
2022/03/20 05:34:36;;;;;;;16.37;2.93;;;28.00;99.90;;;;;;4918338;29;20312;-67
2022/03/20 05:37:07;;;;;;;14.00;2.50;;;27.90;99.90;;;;;;4918240;29;20185;-68
2022/03/20 05:39:35;;;;;;;8.03;1.77;;;27.80;99.90;;;;;;4918371;29;20249;-68
2022/03/20 05:42:03;;;;;;;15.10;3.37;;;27.50;99.90;;;;;;4918151;29;20185;-67
2022/03/20 05:44:33;;;;;;;6.27;1.80;;;27.40;99.90;;;;;;4918217;29;20178;-67
2022/03/20 05:47:01;;;;;;;9.47;1.70;;;27.30;99.90;;;;;;4918198;29;20644;-68
2022/03/20 05:49:29;;;;;;;7.30;1.70;;;27.30;99.90;;;;;;4918025;29;20256;-68
2022/03/20 05:51:57;;;;;;;8.73;2.13;;;27.30;99.90;;;;;;4917904;29;20217;-67
2022/03/20 05:54:25;;;;;;;7.43;1.77;;;27.30;99.90;;;;;;4917644;29;20189;-67
2022/03/20 05:59:38;;;;;;;12.43;2.47;;;26.80;99.90;;;;;;4917103;29;20204;-67
2022/03/20 06:02:09;;;;;;;13.37;2.33;;;26.30;99.90;;;;;;4917360;29;20248;-68
2022/03/20 06:04:38;;;;;;;15.63;2.30;;;26.60;99.90;;;;;;4917808;29;20190;-67
2022/03/20 06:07:08;;;;;;;7.27;2.27;;;26.60;99.90;;;;;;4917941;29;20276;-68
2022/03/20 06:09:37;;;;;;;8.63;2.23;;;26.70;99.90;;;;;;4917786;29;20230;-67
2022/03/20 06:12:08;;;;;;;13.20;2.43;;;26.80;99.90;;;;;;4916729;29;20213;-68
2022/03/20 06:14:36;;;;;;;12.97;2.10;;;26.90;99.90;;;;;;4916227;29;20271;-68
2022/03/20 06:17:06;;;;;;;7.17;1.70;;;26.80;99.90;;;;;;4916274;29;20212;-68
2022/03/20 06:19:35;;;;;;;13.57;2.40;;;26.80;99.90;;;;;;4916175;29;20564;-68
2022/03/20 06:22:02;;;;;;;9.60;1.97;;;26.70;99.90;;;;;;4916149;29;20644;-66
2022/03/20 06:24:32;;;;;;;15.43;2.63;;;26.80;99.90;;;;;;4916099;29;20189;-67
2022/03/20 06:27:00;;;;;;;9.73;2.37;;;27.20;99.90;;;;;;4916650;29;20192;-66
2022/03/20 06:29:27;;;;;;;9.67;2.33;;;27.10;99.90;;;;;;4917447;29;20177;-67
2022/03/20 06:31:55;;;;;;;8.37;2.50;;;27.10;99.90;;;;;;4917249;29;20781;-68
2022/03/20 06:34:23;;;;;;;10.77;2.17;;;27.20;99.90;;;;;;4917266;29;20651;-68
2022/03/20 06:36:52;;;;;;;7.97;2.30;;;27.30;99.90;;;;;;4917355;29;20607;-67
2022/03/20 06:39:20;;;;;;;10.77;1.83;;;27.30;99.90;;;;;;4917121;29;20264;-66
2022/03/20 06:41:48;;;;;;;9.73;2.17;;;27.00;99.90;;;;;;4917086;29;20184;-67
2022/03/20 06:44:15;;;;;;;12.60;2.33;;;27.00;99.90;;;;;;4917133;29;20192;-67
2022/03/20 06:46:44;;;;;;;9.93;2.10;;;26.90;99.90;;;;;;4917182;29;20213;-66
2022/03/20 06:49:12;;;;;;;6.70;2.43;;;27.10;99.90;;;;;;4917057;29;20769;-67
2022/03/20 06:51:40;;;;;;;11.20;2.43;;;26.80;99.90;;;;;;4916842;29;20177;-68
2022/03/20 06:54:07;;;;;;;13.67;2.00;;;26.90;99.90;;;;;;4916778;29;20193;-67
2022/03/20 06:56:35;;;;;;;13.03;1.87;;;26.70;99.90;;;;;;4916989;29;20268;-67
2022/03/20 06:59:03;;;;;;;10.37;2.20;;;26.80;99.90;;;;;;4915888;29;20721;-66
2022/03/20 07:01:31;;;;;;;6.67;1.80;;;26.60;99.90;;;;;;4916412;29;20299;-66
2022/03/20 07:03:58;;;;;;;14.00;2.27;;;26.90;99.90;;;;;;4916738;29;20590;-67
2022/03/20 07:06:28;;;;;;;9.13;2.10;;;26.70;99.90;;;;;;4916688;29;20632;-67
2022/03/20 07:08:59;;;;;;;8.93;2.53;;;26.30;99.90;;;;;;4916604;29;20265;-67
2022/03/20 07:11:33;;;;;;;10.47;2.03;;;26.30;99.90;;;;;;4915950;29;20190;-68
2022/03/20 07:14:02;;;;;;;10.33;2.47;;;26.00;99.90;;;;;;4915570;29;20193;-67
2022/03/20 07:16:31;;;;;;;8.20;2.17;;;26.00;99.90;;;;;;4915931;29;20586;-67
2022/03/20 07:18:58;;;;;;;12.03;2.50;;;25.70;99.90;;;;;;4915788;29;20268;-67
2022/03/20 07:21:28;;;;;;;9.00;1.80;;;25.20;99.90;;;;;;4916063;29;20722;-67
2022/03/20 07:23:57;;;;;;;8.20;2.60;;;24.90;99.90;;;;;;4915982;29;20185;-67
2022/03/20 07:29:31;;;;;;;9.87;2.50;;;24.50;99.90;;;;;;4910952;29;20201;-66
2022/03/20 07:32:04;;;;;;;11.67;2.13;;;24.40;99.90;;;;;;4915493;29;20220;-67
2022/03/20 07:34:32;;;;;;;7.50;2.30;;;24.40;99.90;;;;;;4915898;29;20706;-66
2022/03/20 07:37:00;;;;;;;11.93;2.47;;;24.10;99.90;;;;;;4915440;29;20185;-67
2022/03/20 07:39:29;;;;;;;11.40;2.43;;;24.10;99.90;;;;;;4916090;29;20244;-67
2022/03/20 07:41:58;;;;;;;7.63;2.13;;;23.90;99.90;;;;;;4915820;29;20248;-66
2022/03/20 07:44:31;;;;;;;8.80;2.90;;;23.70;99.90;;;;;;4915690;29;20628;-66
2022/03/20 07:47:00;;;;;;;13.47;2.50;;;23.60;99.90;;;;;;4915618;29;20202;-65
2022/03/20 07:49:27;;;;;;;16.07;2.30;;;23.50;99.90;;;;;;4915304;29;20604;-65
2022/03/20 07:51:57;;;;;;;9.57;2.23;;;23.40;99.90;;;;;;4915754;29;20251;-65
2022/03/20 07:54:28;;;;;;;10.33;2.43;;;23.30;99.90;;;;;;4915941;29;20954;-66
2022/03/20 07:56:56;;;;;;;8.20;2.50;;;23.10;99.90;;;;;;4916051;29;20185;-65
2022/03/20 07:59:24;;;;;;;14.63;2.80;;;23.10;99.90;;;;;;4915929;29;20182;-65
2022/03/20 08:01:51;;;;;;;9.17;3.33;;;23.10;99.90;;;;;;4915717;29;20235;-65
2022/03/20 08:04:20;;;;;;;11.23;2.80;;;22.90;99.90;;;;;;4915863;29;20192;-66
2022/03/20 08:06:47;;;;;;;13.83;2.80;;;22.80;99.90;;;;;;4915723;29;20186;-66
2022/03/20 08:09:15;;;;;;;12.47;3.00;;;22.80;99.90;;;;;;4915943;29;20195;-65
2022/03/20 08:11:43;;;;;;;8.90;2.37;;;22.70;99.90;;;;;;4915717;29;20185;-66
2022/03/20 08:14:10;;;;;;;10.23;2.70;;;22.60;99.90;;;;;;4915849;29;20193;-66
2022/03/20 08:16:39;;;;;;;10.57;2.37;;;22.60;99.90;;;;;;4915245;29;20193;-65
2022/03/20 08:19:12;;;;;;;6.30;2.03;;;22.50;99.90;;;;;;4904535;29;20204;-66
2022/03/20 08:21:39;;;;;;;8.47;2.03;;;22.50;99.90;;;;;;4915671;29;20181;-66
2022/03/20 08:24:07;;;;;;;7.30;2.07;;;22.40;99.90;;;;;;4915516;29;20184;-65
2022/03/20 08:26:36;;;;;;;11.27;1.97;;;22.40;99.90;;;;;;4914143;29;20191;-66
2022/03/20 08:29:04;;;;;;;7.23;2.03;;;22.30;99.90;;;;;;4914128;29;20196;-66
2022/03/20 08:31:34;;;;;;;7.00;2.00;;;22.30;99.90;;;;;;4916142;29;20191;-66
2022/03/20 08:34:01;;;;;;;10.77;2.63;;;22.20;99.90;;;;;;4915517;29;20261;-67
2022/03/20 08:36:29;;;;;;;12.37;3.27;;;22.20;99.90;;;;;;4915340;29;20929;-67
2022/03/20 08:38:57;;;;;;;6.37;2.10;;;22.10;99.90;;;;;;4916998;29;20272;-67
2022/03/20 08:41:25;;;;;;;12.97;2.23;;;22.00;99.90;;;;;;4919357;29;20177;-67
2022/03/20 08:43:52;;;;;;;12.43;2.30;;;22.00;99.90;;;;;;4919045;29;20586;-67
2022/03/20 08:46:20;;;;;;;10.37;2.43;;;21.90;99.90;;;;;;4918654;29;20190;-67
2022/03/20 08:48:48;;;;;;;11.30;2.90;;;21.90;99.90;;;;;;4918655;29;20692;-66
2022/03/20 08:51:15;;;;;;;9.00;2.37;;;21.90;99.90;;;;;;4918725;29;20584;-66
2022/03/20 08:53:43;;;;;;;10.80;2.30;;;21.80;99.90;;;;;;4918536;29;20307;-66
2022/03/20 08:56:11;;;;;;;9.70;2.30;;;21.80;99.90;;;;;;4919078;29;20185;-67
2022/03/20 08:58:39;;;;;;;10.93;2.30;;;21.70;99.90;;;;;;4919015;29;20193;-66
2022/03/20 09:01:07;;;;;;;7.77;1.93;;;21.60;99.90;;;;;;4918859;29;20228;-67
2022/03/20 09:03:35;;;;;;;17.90;3.00;;;21.60;99.90;;;;;;4918909;29;20592;-67
2022/03/20 09:06:03;;;;;;;14.87;3.10;;;21.50;99.90;;;;;;4917673;29;20189;-68
2022/03/20 09:08:30;;;;;;;12.90;3.67;;;21.50;99.90;;;;;;4918936;29;20177;-68
2022/03/20 09:10:58;;;;;;;18.67;2.67;;;21.60;99.90;;;;;;4918656;29;20191;-68
2022/03/20 09:13:26;;;;;;;10.03;2.50;;;21.60;99.90;;;;;;4918349;29;20276;-68
2022/03/20 09:19:00;;;;;;;7.67;2.63;;;21.30;99.90;;;;;;4907879;29;20608;-68
2022/03/20 09:21:30;;;;;;;16.73;2.37;;;21.20;99.90;;;;;;4918552;29;20190;-68
2022/03/20 09:23:59;;;;;;;11.10;2.00;;;21.10;99.90;;;;;;4918486;29;20189;-67
2022/03/20 09:26:27;;;;;;;8.70;2.33;;;21.10;99.90;;;;;;4918222;29;20284;-68
2022/03/20 09:28:54;;;;;;;9.77;2.13;;;21.10;99.90;;;;;;4918636;29;20181;-67
2022/03/20 09:31:22;;;;;;;14.93;2.60;;;21.00;99.90;;;;;;4918659;29;20182;-67
2022/03/20 09:33:51;;;;;;;9.00;2.27;;;21.00;99.90;;;;;;4917979;29;20227;-67
2022/03/20 09:36:19;;;;;;;17.10;2.73;;;20.90;99.90;;;;;;4918446;29;20178;-67
2022/03/20 09:38:46;;;;;;;10.80;2.43;;;20.90;99.90;;;;;;4918495;29;20181;-67
2022/03/20 09:41:14;;;;;;;9.63;2.43;;;20.80;99.90;;;;;;4918322;29;20676;-67
2022/03/20 09:43:44;;;;;;;12.03;2.50;;;20.70;99.90;;;;;;4918193;29;20256;-67
2022/03/20 09:46:12;;;;;;;7.60;2.00;;;20.70;99.90;;;;;;4916497;29;20331;-67
2022/03/20 09:48:42;;;;;;;13.17;2.33;;;20.50;99.90;;;;;;4917991;29;20670;-67
2022/03/20 09:51:09;;;;;;;9.53;2.33;;;20.50;99.90;;;;;;4918707;29;20190;-68
2022/03/20 09:53:37;;;;;;;14.17;2.80;;;20.40;99.90;;;;;;4919572;29;20220;-67
2022/03/20 09:56:06;;;;;;;11.47;2.03;;;20.40;99.90;;;;;;4920318;29;20186;-67
2022/03/20 09:58:34;;;;;;;9.40;2.43;;;20.30;99.90;;;;;;4921086;29;20255;-67
2022/03/20 10:01:02;;;;;;;7.13;2.20;;;20.40;99.90;;;;;;4921191;29;20586;-67
2022/03/20 10:03:30;;;;;;;8.97;2.80;;;20.40;99.90;;;;;;4920795;29;20276;-67
2022/03/20 10:06:16;;;;;;;14.33;2.50;;;20.40;99.90;;;;;;4920013;29;20188;-66
2022/03/20 10:08:59;;;;;;;10.93;2.83;;;20.30;99.90;;;;;;4918383;29;20189;-67
2022/03/20 10:11:26;;;;;;;7.87;1.93;;;20.40;99.90;;;;;;4917821;29;20344;-67
2022/03/20 10:14:23;;;;;;;13.37;2.43;;;20.40;99.90;;;;;;4917637;29;20223;-66
2022/03/20 10:16:56;;;;;;;12.47;2.67;;;20.50;99.90;;;;;;4917882;29;20189;-67
2022/03/20 10:19:28;;;;;;;13.67;2.57;;;20.50;99.90;;;;;;4917598;29;20189;-66
2022/03/20 10:22:10;;;;;;;8.97;2.00;;;20.60;99.90;;;;;;4917240;29;20192;-67
2022/03/20 10:24:40;;;;;;;7.17;2.17;;;20.60;99.90;;;;;;4917666;29;20271;-67
2022/03/20 10:27:13;;;;;;;8.60;2.00;;;20.50;99.90;;;;;;4917622;29;20182;-67
2022/03/20 10:30:00;;;;;;;11.07;3.07;;;20.40;99.90;;;;;;4917154;29;20189;-67
2022/03/20 10:32:28;;;;;;;11.17;2.83;;;20.30;99.90;;;;;;4916897;29;20709;-67
2022/03/20 10:35:01;;;;;;;17.37;3.20;;;20.30;99.90;;;;;;4917350;29;20182;-67
2022/03/20 10:38:03;;;;;;;11.97;2.53;;;20.30;99.90;;;;;;4917397;29;20180;-67
2022/03/20 10:40:31;;;;;;;11.10;2.83;;;20.30;99.90;;;;;;4840612;29;20296;-67
2022/03/20 10:43:17;;;;;;;16.03;3.03;;;20.20;99.90;;;;;;4902995;29;20196;-67
2022/03/20 10:46:00;;;;;;;10.90;2.97;;;20.30;99.90;;;;;;4916865;29;20248;-67
2022/03/20 10:48:42;;;;;;;14.23;2.70;;;20.30;99.90;;;;;;4916128;29;20659;-66
2022/03/20 10:51:10;;;;;;;10.30;2.70;;;20.30;99.90;;;;;;4916313;29;20647;-67
2022/03/20 10:53:59;;;;;;;8.27;2.87;;;20.30;99.90;;;;;;4916504;29;20232;-67
2022/03/20 10:56:27;;;;;;;6.97;2.23;;;20.20;99.90;;;;;;4915824;29;20187;-68
2022/03/20 10:58:55;;;;;;;15.23;2.90;;;20.20;99.90;;;;;;4917064;29;20222;-68
2022/03/20 11:01:35;;;;;;;8.27;2.20;;;20.20;99.90;;;;;;4915261;29;20239;-67
2022/03/20 11:04:05;;;;;;;13.80;2.53;;;20.20;99.90;;;;;;4916156;29;20195;-67
2022/03/20 11:06:34;;;;;;;11.67;2.63;;;20.20;99.90;;;;;;4916919;29;20190;-67
2022/03/20 11:09:04;;;;;;;10.03;2.27;;;20.10;99.90;;;;;;4916800;29;20192;-67
2022/03/20 11:11:35;;;;;;;9.70;2.67;;;20.10;99.90;;;;;;4916701;29;20510;-67
2022/03/20 11:14:04;;;;;;;14.07;3.20;;;20.10;99.90;;;;;;4916310;29;20204;-67
2022/03/20 11:16:38;;;;;;;12.47;2.90;;;20.00;99.90;;;;;;4916731;29;20207;-67
2022/03/20 11:19:12;;;;;;;10.93;2.20;;;20.00;99.90;;;;;;4916440;29;20179;-67
2022/03/20 11:21:44;;;;;;;14.10;3.03;;;20.00;99.90;;;;;;4916208;29;20268;-67
2022/03/20 11:24:15;;;;;;;10.73;2.50;;;20.00;99.90;;;;;;4916549;29;20212;-67
2022/03/20 11:26:48;;;;;;;7.53;2.83;;;20.00;99.90;;;;;;4916414;29;20263;-67
2022/03/20 11:29:18;;;;;;;11.47;3.33;;;20.00;99.90;;;;;;4916344;29;20223;-67
2022/03/20 11:31:46;;;;;;;14.33;3.20;;;19.90;99.90;;;;;;4915429;29;20213;-67
2022/03/20 11:34:15;;;;;;;18.40;2.90;;;19.90;99.90;;;;;;4916650;29;20249;-67
2022/03/20 11:37:02;;;;;;;14.93;3.07;;;19.90;99.90;;;;;;4916469;29;20517;-66
2022/03/20 11:39:34;;;;;;;14.80;2.83;;;19.70;99.90;;;;;;4915899;29;20609;-66
2022/03/20 11:42:41;;;;;;;6.60;2.50;;;19.70;99.90;;;;;;4916203;29;20959;-66
2022/03/20 11:45:20;;;;;;;9.97;2.13;;;19.50;99.90;;;;;;4858020;29;20246;-66
2022/03/20 11:47:52;;;;;;;12.63;3.10;;;19.40;99.90;;;;;;4857839;29;20295;-66
2022/03/20 11:50:43;;;;;;;7.33;2.40;;;19.30;99.90;;;;;;4892451;29;20197;-67
2022/03/20 11:53:13;;;;;;;11.50;2.60;;;19.20;99.90;;;;;;4915546;29;20705;-67
2022/03/20 11:55:51;;;;;;;16.10;2.63;;;19.10;99.90;;;;;;4911070;29;20265;-66
2022/03/20 11:58:23;;;;;;;12.27;2.60;;;19.00;99.90;;;;;;4915010;29;20188;-66
2022/03/20 12:01:03;;;;;;;10.33;2.60;;;19.00;99.90;;;;;;4915874;29;20264;-67
2022/03/20 12:04:13;;;;;;;11.27;3.00;;;18.90;99.90;;;;;;4915611;29;20194;-67
2022/03/20 12:07:08;;;;;;;7.23;2.17;;;18.80;99.90;;;;;;4917047;29;20208;-67
2022/03/20 12:10:11;;;;;;;9.07;2.43;;;18.70;99.90;;;;;;4911213;29;20189;-67
2022/03/20 12:13:11;;;;;;;11.10;2.73;;;18.70;99.90;;;;;;4908447;29;20264;-67
2022/03/20 12:15:44;;;;;;;7.57;2.63;;;18.60;99.90;;;;;;4902404;29;20652;-67
2022/03/20 12:18:12;;;;;;;6.70;2.60;;;18.60;99.90;;;;;;4916873;29;20190;-66
2022/03/20 12:20:59;;;;;;;10.00;2.83;;;18.50;99.90;;;;;;4916915;29;20195;-67
2022/03/20 12:23:43;;;;;;;11.00;2.67;;;18.50;99.90;;;;;;4916604;29;20690;-67
2022/03/20 12:26:31;;;;;;;8.93;3.20;;;18.50;99.90;;;;;;4916725;29;20194;-67
2022/03/20 12:29:29;;;;;;;8.20;2.97;;;18.50;99.90;;;;;;4917138;29;20182;-68
2022/03/20 12:32:03;;;;;;;12.43;3.40;;;18.40;99.90;;;;;;4916544;29;20187;-68
2022/03/20 12:34:31;;;;;;;9.37;2.77;;;18.30;99.90;;;;;;4916298;29;20742;-68
2022/03/20 12:37:29;;;;;;;10.57;3.67;;;18.30;99.90;;;;;;4917013;29;20211;-68
2022/03/20 12:40:11;;;;;;;16.23;3.17;;;18.30;99.90;;;;;;4916287;29;20184;-68
2022/03/20 12:42:43;;;;;;;11.70;3.40;;;18.40;99.90;;;;;;4916468;29;20185;-68
2022/03/20 12:45:17;;;;;;;11.07;3.20;;;18.50;99.90;;;;;;4916344;29;20650;-67
2022/03/20 12:47:59;;;;;;;14.47;3.43;;;18.50;99.90;;;;;;4917047;29;20592;-67
2022/03/20 12:50:42;;;;;;;7.53;3.13;;;18.60;99.90;;;;;;4915992;29;20659;-66
2022/03/20 12:53:12;;;;;;;11.83;4.17;;;18.70;99.90;;;;;;4915457;29;20217;-67
2022/03/20 12:55:40;;;;;;;14.63;3.67;;;18.70;99.90;;;;;;4916137;29;20185;-67
2022/03/20 12:58:16;;;;;;;11.90;3.50;;;18.70;99.90;;;;;;4915523;29;20189;-67
2022/03/20 13:00:44;;;;;;;13.97;3.67;;;18.80;99.90;;;;;;4914178;29;20185;-67
2022/03/20 13:03:17;;;;;;;14.67;3.70;;;18.80;99.90;;;;;;4915989;29;20216;-68
2022/03/20 13:05:58;;;;;;;10.87;3.47;;;18.80;99.90;;;;;;4916554;29;20188;-68
2022/03/20 13:08:40;;;;;;;9.23;3.57;;;18.80;99.90;;;;;;4916597;29;20197;-67
2022/03/20 13:14:01;;;;;;;13.00;3.70;;;18.80;99.90;;;;;;4916311;29;20227;-68
2022/03/20 13:16:29;;;;;;;12.00;3.67;;;18.70;99.90;;;;;;4916525;29;20759;-68
2022/03/20 13:18:57;;;;;;;14.83;4.17;;;18.70;99.90;;;;;;4916529;29;20218;-68
2022/03/20 13:21:25;;;;;;;11.47;3.03;;;18.70;99.90;;;;;;4916692;29;20206;-68
2022/03/20 13:23:53;;;;;;;14.43;3.33;;;18.60;99.90;;;;;;4916467;29;20616;-68
2022/03/20 13:26:22;;;;;;;11.37;2.90;;;18.70;99.90;;;;;;4919815;29;20185;-68
2022/03/20 13:28:50;;;;;;;9.03;2.67;;;18.70;99.90;;;;;;4919977;29;20541;-68
2022/03/20 13:31:20;;;;;;;8.87;3.10;;;18.70;99.90;;;;;;4919716;29;20183;-68
2022/03/20 13:33:59;;;;;;;12.50;3.43;;;18.80;99.90;;;;;;4919050;29;20307;-68
2022/03/20 13:36:39;;;;;;;9.57;3.00;;;18.80;99.90;;;;;;4919309;29;20200;-68